This is the latest recevied weather packets stored in our database for station/object N8VDS-10. If no packets are shown the sender has not sent any weather packets the latest 10 day(s).
| Time | Temp. | Humidity | Pressure | Rain* | Wind** | Luminosity | Snow |
|---|---|---|---|---|---|---|---|
| 1777814740 | 10° C | 49% | 1016.2 hPa | 0 mm | - | 287 W/m² | - |
| 1777814134 | 10° C | 49% | 1016.1 hPa | 0 mm | - | 265 W/m² | - |
| 1777813831 | 9.44° C | 49% | 1016.1 hPa | 0 mm | - | 300 W/m² | - |
| 1777812317 | 8.33° C | 52% | 1016.2 hPa | 0 mm | - | 248 W/m² | - |
| 1777807776 | 5.56° C | 55% | 1016.3 hPa | 0 mm | - | 47 W/m² | - |
| 1777804745 | 5° C | 54% | 1016.1 hPa | 0 mm | - | 6 W/m² | - |
| 1777804443 | 5° C | 54% | 1016.2 hPa | 0 mm | - | 5 W/m² | - |
| 1777804140 | 4.44° C | 55% | 1016 hPa | 0 mm | - | 3 W/m² | - |
| 1777803532 | 4.44° C | 54% | 1016.2 hPa | 0 mm | - | 1 W/m² | - |
| 1777802927 | 3.89° C | 56% | 1016.2 hPa | 0 mm | - | 0 W/m² | - |
| 1777801111 | 3.33° C | 58% | 1016.7 hPa | 0 mm | - | 0 W/m² | - |
| 1777800808 | 3.33° C | 58% | 1016.6 hPa | 0 mm | - | 0 W/m² | - |
| 1777800503 | 2.78° C | 58% | 1016.9 hPa | 0 mm | - | 0 W/m² | - |
| 1777800200 | 2.78° C | 60% | 1017 hPa | 0 mm | - | 0 W/m² | - |
| 1777799900 | 2.78° C | 60% | 1017 hPa | 0 mm | - | 0 W/m² | - |
| 1777799597 | 2.78° C | 59% | 1017.1 hPa | 0 mm | - | 0 W/m² | - |
| 1777799294 | 2.78° C | 59% | 1017.1 hPa | 0 mm | - | 0 W/m² | - |
| 1777798989 | 2.78° C | 59% | 1017.1 hPa | 0 mm | - | 0 W/m² | - |
| 1777798686 | 2.78° C | 59% | 1017.3 hPa | 0 mm | - | 0 W/m² | - |
| 1777798382 | 2.78° C | 58% | 1017.4 hPa | 0 mm | - | 0 W/m² | - |
| 1777798079 | 2.78° C | 58% | 1017.2 hPa | 0 mm | - | 0 W/m² | - |
| 1777797474 | 3.33° C | 59% | 1017.5 hPa | 0 mm | - | 0 W/m² | - |
| 1777797171 | 2.78° C | 58% | 1017.4 hPa | 0 mm | - | 0 W/m² | - |
| 1777796868 | 3.33° C | 59% | 1017.4 hPa | 0 mm | - | 0 W/m² | - |
| 1777796565 | 2.78° C | 59% | 1017.4 hPa | 0 mm | - | 0 W/m² | - |
* Rain latest hour (hover to see other rain measurements)
** Current wind speed in m/s (hover to see current wind gust speed)